Time;durP1;ratioP1;P1;durP2;ratioP2;P2;SDS_P1;SDS_P2;PMS_P1;PMS_P2;Temp;Humidity;BMP_temperature;BMP_pressure;BME280_temperature;BME280_humidity;BME280_pressure;Samples;Min_cycle;Max_cycle;Signal;HPM_P1;HPM_P2
2022/05/11 00:01:01;;;;;;;;;8.50;8.50;;;;;23.09;39.62;100987.78;5036242;28;46090;-54
2022/05/11 00:03:26;;;;;;;;;10.00;10.00;;;;;23.08;39.47;100986.09;5036215;28;45392;-54
2022/05/11 00:05:52;;;;;;;;;8.00;6.75;;;;;23.08;39.73;100991.38;5036425;28;45372;-54
2022/05/11 00:08:18;;;;;;;;;10.75;10.75;;;;;23.08;39.74;100986.09;5036463;28;45418;-54
2022/05/11 00:10:43;;;;;;;;;7.25;7.25;;;;;23.08;39.80;100983.44;5034939;28;46104;-54
2022/05/11 00:13:09;;;;;;;;;8.00;7.25;;;;;23.09;39.50;100984.28;5035128;28;45460;-54
2022/05/11 00:15:34;;;;;;;;;10.00;8.00;;;;;23.06;39.90;100980.06;5036183;28;45261;-55
2022/05/11 00:18:01;;;;;;;;;10.00;8.00;;;;;23.07;39.73;100976.47;5036437;28;45602;-55
2022/05/11 00:20:26;;;;;;;;;10.00;8.25;;;;;23.05;39.75;100975.72;5036011;28;46998;-54
2022/05/11 00:22:56;;;;;;;;;8.25;8.00;;;;;23.06;39.93;100972.13;5036126;28;45342;-54
2022/05/11 00:25:25;;;;;;;;;8.75;8.75;;;;;23.04;39.82;100962.59;5036255;28;45461;-54
2022/05/11 00:27:54;;;;;;;;;6.75;6.00;;;;;23.07;40.01;100968.53;5036296;28;45453;-53
2022/05/11 00:30:20;;;;;;;;;8.25;8.25;;;;;23.06;39.75;100955.41;5035773;28;46390;-54
2022/05/11 00:32:50;;;;;;;;;8.00;8.00;;;;;23.05;39.76;100959.84;5035874;28;45313;-54
2022/05/11 00:35:16;;;;;;;;;9.00;9.00;;;;;23.06;40.09;100950.09;5035503;28;45327;-54
2022/05/11 00:37:41;;;;;;;;;10.00;8.00;;;;;23.05;39.69;100948.41;5036486;28;45577;-54
2022/05/11 00:40:07;;;;;;;;;10.00;8.00;;;;;23.06;39.99;100944.81;5035293;28;60178;-54
2022/05/11 00:42:32;;;;;;;;;12.50;10.50;;;;;23.05;39.96;100946.63;5035771;28;45445;-53
2022/05/11 00:44:58;;;;;;;;;8.50;8.00;;;;;23.04;40.07;100947.56;5035948;28;45655;-54
2022/05/11 00:47:29;;;;;;;;;9.50;8.00;;;;;23.04;40.17;100941.44;5036073;28;45761;-54
2022/05/11 00:50:17;;;;;;;;;7.50;7.50;;;;;23.05;39.69;100943.13;5034260;28;46089;-54
2022/05/11 00:53:09;;;;;;;;;10.50;8.75;;;;;23.03;40.04;100932.66;5036065;28;45233;-54
2022/05/11 00:55:40;;;;;;;;;9.50;8.75;;;;;23.03;40.21;100931.81;5035603;28;45239;-55
2022/05/11 00:58:26;;;;;;;;;9.50;9.50;;;;;23.01;40.22;100922.19;5035895;28;45498;-55
2022/05/11 01:00:53;;;;;;;;;8.25;8.25;;;;;23.02;40.16;100925.66;5035615;28;46296;-55
2022/05/11 01:03:23;;;;;;;;;8.00;7.00;;;;;22.96;40.22;100923.44;5035576;28;45347;-55
2022/05/11 01:05:48;;;;;;;;;9.00;9.00;;;;;23.00;40.30;100920.50;5035546;28;45236;-54
2022/05/11 01:08:17;;;;;;;;;9.00;7.00;;;;;23.00;40.16;100920.50;5036164;28;45516;-55
2022/05/11 01:10:43;;;;;;;;;8.50;8.50;;;;;22.99;40.35;100910.00;5035723;28;45369;-55
2022/05/11 01:13:11;;;;;;;;;6.25;6.25;;;;;22.98;40.33;100905.69;5035281;28;45319;-54
2022/05/11 01:15:37;;;;;;;;;8.75;8.75;;;;;22.98;40.08;100903.03;5035615;28;45491;-54
2022/05/11 01:18:05;;;;;;;;;11.75;7.75;;;;;22.98;40.14;100909.16;5034530;28;45287;-55
2022/05/11 01:20:33;;;;;;;;;9.75;8.25;;;;;22.97;40.57;100899.53;5035444;28;45583;-55
2022/05/11 01:23:37;;;;;;;;;13.50;10.25;;;;;22.98;40.16;100906.53;5038724;28;45866;-54
2022/05/11 01:26:04;;;;;;;;;9.25;9.00;;;;;22.96;40.01;100897.00;5038890;28;45466;-55
2022/05/11 01:28:31;;;;;;;;;7.25;7.25;;;;;22.95;40.13;100895.31;5039078;28;45526;-55
2022/05/11 01:31:11;;;;;;;;;10.75;10.00;;;;;22.97;40.17;100898.72;5038303;28;46323;-55
2022/05/11 01:33:40;;;;;;;;;8.75;8.75;;;;;22.97;40.32;100896.91;5038541;28;45907;-55
2022/05/11 01:36:34;;;;;;;;;8.25;7.25;;;;;22.96;40.41;100889.06;5038784;28;45248;-55
2022/05/11 01:39:05;;;;;;;;;10.00;8.00;;;;;22.95;40.32;100890.03;5038826;28;45272;-55
2022/05/11 01:41:34;;;;;;;;;8.75;8.75;;;;;22.95;40.28;100884.72;5038490;28;46093;-55
2022/05/11 01:44:01;;;;;;;;;9.25;9.25;;;;;22.96;40.35;100891.72;5038456;28;45381;-55
2022/05/11 01:46:27;;;;;;;;;7.50;7.00;;;;;22.95;40.41;100887.38;5038510;28;45363;-55
2022/05/11 01:48:52;;;;;;;;;9.00;9.00;;;;;22.95;40.51;100900.59;5038720;28;45464;-54
2022/05/11 01:51:19;;;;;;;;;8.75;8.75;;;;;22.95;40.39;100887.38;5038040;28;46027;-54
2022/05/11 01:53:45;;;;;;;;;3.00;1.00;;;;;22.94;40.27;100891.81;5038634;28;45890;-55
2022/05/11 01:56:14;;;;;;;;;10.00;10.00;;;;;22.94;40.44;100891.81;5038346;28;45303;-55
2022/05/11 01:58:39;;;;;;;;;11.25;8.00;;;;;22.96;40.39;100897.00;5038484;28;45337;-55
2022/05/11 02:01:05;;;;;;;;;9.50;9.25;;;;;22.94;40.39;100896.25;5038100;28;46019;-55
2022/05/11 02:03:31;;;;;;;;;10.75;10.50;;;;;22.94;40.08;100894.44;5038057;28;45868;-56
2022/05/11 02:08:43;;;;;;;;;8.25;8.25;;;;;22.81;40.64;100889.09;5038470;28;45341;-56
2022/05/11 02:11:09;;;;;;;;;10.00;10.00;;;;;22.75;40.34;100888.66;5037738;28;46338;-56
2022/05/11 02:13:35;;;;;;;;;11.25;8.25;;;;;22.67;40.75;100886.50;5037699;28;46027;-56
2022/05/11 02:16:01;;;;;;;;;10.75;9.50;;;;;22.61;40.73;100890.38;5038009;28;45422;-56
2022/05/11 02:18:26;;;;;;;;;9.00;8.75;;;;;22.57;40.92;100886.25;5038223;28;45523;-56
2022/05/11 02:20:51;;;;;;;;;7.50;7.25;;;;;22.50;40.69;100880.50;5037185;28;59317;-56
2022/05/11 02:23:18;;;;;;;;;7.00;7.00;;;;;22.46;41.22;100881.63;5038135;28;45357;-57
2022/05/11 02:25:45;;;;;;;;;8.00;6.75;;;;;22.43;41.22;100878.34;5038291;28;45482;-56
2022/05/11 02:28:12;;;;;;;;;9.25;8.50;;;;;22.38;41.14;100881.25;5037885;28;45547;-56
2022/05/11 02:30:39;;;;;;;;;11.50;9.50;;;;;22.34;41.46;100882.38;5037540;28;47033;-56
2022/05/11 02:33:05;;;;;;;;;9.50;9.25;;;;;22.32;41.29;100876.34;5036443;28;45442;-56
2022/05/11 02:35:31;;;;;;;;;6.75;6.75;;;;;22.28;41.24;100874.84;5037899;28;45444;-56
2022/05/11 02:37:59;;;;;;;;;9.25;9.00;;;;;22.26;41.65;100880.22;5037922;28;45271;-57
2022/05/11 02:40:30;;;;;;;;;10.00;10.00;;;;;22.23;41.15;100877.75;5037515;28;46083;-56
2022/05/11 02:42:56;;;;;;;;;10.00;8.75;;;;;22.19;41.53;100870.97;5037593;28;45284;-56
2022/05/11 02:45:23;;;;;;;;;7.50;6.75;;;;;22.16;41.84;100873.81;5037062;28;45422;-56
2022/05/11 02:47:50;;;;;;;;;9.00;8.50;;;;;22.13;41.75;100864.28;5037930;28;45293;-56
2022/05/11 02:50:22;;;;;;;;;8.00;7.75;;;;;22.09;41.81;100868.91;5037597;28;46202;-56
2022/05/11 02:52:47;;;;;;;;;12.25;9.75;;;;;22.08;41.83;100871.66;5037535;28;45284;-56
2022/05/11 02:55:13;;;;;;;;;10.25;9.00;;;;;22.04;41.88;100862.22;5036663;28;58695;-56
2022/05/11 02:57:39;;;;;;;;;9.00;9.00;;;;;22.03;41.91;100860.50;5037542;28;45438;-56
2022/05/11 03:00:08;;;;;;;;;8.00;8.00;;;;;22.01;41.84;100857.13;5037172;28;45712;-56
2022/05/11 03:02:35;;;;;;;;;7.25;7.25;;;;;21.98;41.76;100849.41;5037164;28;45331;-56
2022/05/11 03:05:00;;;;;;;;;11.75;11.00;;;;;21.97;41.72;100855.63;5037161;28;45545;-57
2022/05/11 03:07:25;;;;;;;;;10.00;10.00;;;;;21.95;41.77;100860.97;5037125;28;45577;-56
2022/05/11 03:09:53;;;;;;;;;10.00;10.00;;;;;21.92;41.94;100853.25;5036827;28;45950;-56
2022/05/11 03:12:18;;;;;;;;;9.50;9.50;;;;;21.91;41.95;100855.03;5037165;28;45813;-56
2022/05/11 03:14:44;;;;;;;;;11.00;11.00;;;;;21.89;42.32;100859.56;5036974;28;45264;-56
2022/05/11 03:17:09;;;;;;;;;8.75;8.75;;;;;21.88;42.43;100855.22;5037139;28;45404;-56
2022/05/11 03:19:35;;;;;;;;;9.00;9.00;;;;;21.87;42.14;100855.31;5036550;28;56924;-56
2022/05/11 03:22:00;;;;;;;;;9.75;9.75;;;;;21.84;42.37;100851.09;5036630;28;45297;-56
2022/05/11 03:24:26;;;;;;;;;9.50;9.50;;;;;21.83;42.12;100854.66;5052414;28;45306;-56
2022/05/11 03:26:51;;;;;;;;;11.50;9.75;;;;;21.83;42.68;100857.31;5037537;28;45471;-56
2022/05/11 03:29:18;;;;;;;;;9.25;8.25;;;;;21.78;42.51;100840.88;5037134;28;45240;-56
2022/05/11 03:34:36;;;;;;;;;10.50;9.00;;;;;21.80;42.60;100860.13;5036527;28;45332;-56
2022/05/11 03:34:38;;;;;;;;;10.25;9.00;;;;;21.78;42.83;100851.44;5036716;28;45309;-56
2022/05/11 03:37:11;;;;;;;;;11.00;9.75;;;;;21.78;42.83;100867.28;5037006;28;45282;-56
2022/05/11 03:39:37;;;;;;;;;8.50;8.50;;;;;21.76;42.84;100854.19;5036650;28;46405;-56
2022/05/11 03:42:04;;;;;;;;;11.50;9.00;;;;;21.72;43.01;100851.81;5036563;28;45406;-56
2022/05/11 03:44:30;;;;;;;;;11.75;11.00;;;;;21.77;43.22;100857.69;5036054;28;45292;-56
2022/05/11 03:46:55;;;;;;;;;9.75;9.75;;;;;21.76;43.38;100856.00;5036762;28;45660;-56
2022/05/11 03:49:21;;;;;;;;;16.50;10.50;;;;;21.75;43.38;100846.38;5034891;28;61454;-56
2022/05/11 03:51:47;;;;;;;;;13.25;11.75;;;;;21.72;43.21;100846.56;5036348;28;45508;-56
2022/05/11 03:54:13;;;;;;;;;10.75;9.75;;;;;21.72;43.30;100843.91;5036637;28;45418;-57
2022/05/11 03:56:38;;;;;;;;;17.00;11.50;;;;;21.71;43.35;100847.50;5036653;28;45569;-56
2022/05/11 03:59:03;;;;;;;;;9.75;9.75;;;;;21.68;43.61;100840.63;5036146;28;46090;-56
2022/05/11 04:01:29;;;;;;;;;12.67;11.33;;;;;21.67;43.83;100857.38;5035946;28;52797;-56
2022/05/11 04:03:54;;;;;;;;;10.75;9.25;;;;;21.68;43.89;100860.84;5034991;28;49896;-56
2022/05/11 04:06:19;;;;;;;;;14.00;11.50;;;;;21.66;43.42;100857.47;5036833;28;45672;-56
2022/05/11 04:08:45;;;;;;;;;11.00;11.00;;;;;21.67;43.89;100853.88;5035970;28;49165;-56
2022/05/11 04:11:11;;;;;;;;;12.00;11.00;;;;;21.67;43.83;100859.16;5036096;28;45592;-56
2022/05/11 04:13:38;;;;;;;;;13.00;10.25;;;;;21.65;43.89;100861.06;5036185;28;45314;-56
2022/05/11 04:16:03;;;;;;;;;10.25;7.25;;;;;21.65;43.70;100855.78;5036401;28;45159;-56
2022/05/11 04:18:29;;;;;;;;;13.00;11.00;;;;;21.64;44.05;100864.63;5036110;28;45866;-56
2022/05/11 04:20:54;;;;;;;;;11.50;10.00;;;;;21.61;43.54;100860.38;5035974;28;55549;-56
2022/05/11 04:23:19;;;;;;;;;11.00;10.00;;;;;21.64;43.85;100868.09;5036621;28;45382;-56
2022/05/11 04:25:45;;;;;;;;;10.25;9.25;;;;;21.62;43.84;100870.84;5036272;28;45423;-56
2022/05/11 04:28:12;;;;;;;;;10.33;10.33;;;;;21.62;44.06;100865.56;5035675;28;55560;-56
2022/05/11 04:30:39;;;;;;;;;10.25;10.00;;;;;21.62;44.17;100873.47;5035937;28;45315;-56
2022/05/11 04:33:06;;;;;;;;;12.00;10.75;;;;;21.61;43.69;100866.50;5036148;28;45382;-56
2022/05/11 04:35:31;;;;;;;;;9.75;9.75;;;;;21.59;44.06;100860.47;5036232;28;45442;-56
2022/05/11 04:37:58;;;;;;;;;14.75;12.50;;;;;21.62;43.95;100867.34;5035853;28;46188;-56
2022/05/11 04:40:24;;;;;;;;;11.75;11.75;;;;;21.58;43.87;100864.00;5036115;28;45908;-56
2022/05/11 04:42:50;;;;;;;;;11.00;10.50;;;;;21.58;44.34;100865.81;5036107;28;45260;-56
2022/05/11 04:45:16;;;;;;;;;9.75;9.50;;;;;21.55;44.01;100866.81;5036420;28;45658;-56
2022/05/11 04:47:42;;;;;;;;;10.25;10.25;;;;;21.54;44.14;100866.94;5035786;28;46188;-56
2022/05/11 04:50:08;;;;;;;;;11.00;11.00;;;;;21.53;44.24;100862.59;5035708;28;45316;-56
2022/05/11 04:52:34;;;;;;;;;13.00;13.00;;;;;21.51;43.94;100862.69;5035808;28;45454;-56
2022/05/11 04:55:00;;;;;;;;;11.25;11.25;;;;;21.51;44.35;100861.81;5035951;28;45485;-56
2022/05/11 04:57:25;;;;;;;;;11.50;10.25;;;;;21.52;44.02;100864.38;5038892;28;46049;-57
2022/05/11 04:59:51;;;;;;;;;17.00;12.50;;;;;21.53;44.27;100863.44;5038909;28;47940;-56
2022/05/11 05:02:22;;;;;;;;;11.50;11.50;;;;;21.52;44.00;100856.47;5039254;28;45343;-56
2022/05/11 05:04:48;;;;;;;;;11.50;10.00;;;;;21.52;44.08;100855.63;5039284;28;45596;-57
2022/05/11 05:07:14;;;;;;;;;9.50;9.50;;;;;21.49;44.40;100861.09;5038765;28;45362;-56
2022/05/11 05:09:41;;;;;;;;;13.50;11.75;;;;;21.51;44.19;100859.19;5038693;28;45445;-56
2022/05/11 05:12:07;;;;;;;;;11.75;10.00;;;;;21.52;43.89;100859.13;5038881;28;45380;-56
2022/05/11 05:14:33;;;;;;;;;11.00;11.00;;;;;21.55;44.20;100866.81;5039131;28;45577;-56
2022/05/11 05:17:06;;;;;;;;;20.50;19.50;;;;;21.58;43.72;100857.91;5038795;28;45261;-56
2022/05/11 05:19:32;;;;;;;;;16.75;13.00;;;;;21.59;43.84;100859.63;5037567;28;46063;-57
2022/05/11 05:21:58;;;;;;;;;20.00;19.50;;;;;21.59;43.74;100864.91;5038660;28;45220;-57
2022/05/11 05:24:24;;;;;;;;;20.25;18.50;;;;;21.58;43.88;100858.75;5039302;28;45590;-56
2022/05/11 05:26:50;;;;;;;;;21.00;18.00;;;;;21.60;43.70;100858.69;5038528;28;46165;-57
2022/05/11 05:31:59;;;;;;;;;18.00;18.00;;;;;21.67;43.44;100861.78;5038618;28;45366;-61
2022/05/11 05:34:25;;;;;;;;;18.00;15.25;;;;;21.70;43.62;100858.97;5039030;28;45320;-60
2022/05/11 05:36:50;;;;;;;;;17.00;17.00;;;;;21.71;43.19;100858.03;5038478;28;46365;-60
2022/05/11 05:39:15;;;;;;;;;18.67;17.67;;;;;21.71;43.31;100861.53;5036654;28;60098;-62
2022/05/11 05:41:41;;;;;;;;;17.25;16.00;;;;;21.71;42.91;100855.41;5038516;28;45383;-61
2022/05/11 05:44:07;;;;;;;;;16.25;15.50;;;;;21.74;42.94;100861.34;5038581;28;45580;-61
2022/05/11 05:46:34;;;;;;;;;20.00;16.50;;;;;21.76;42.88;100866.53;5038262;28;45394;-61
2022/05/11 05:49:00;;;;;;;;;16.75;15.75;;;;;21.77;42.90;100862.97;5038365;28;45338;-61
2022/05/11 05:51:26;;;;;;;;;14.00;13.50;;;;;21.80;42.88;100864.56;5038656;28;45331;-60
2022/05/11 05:53:52;;;;;;;;;15.75;15.25;;;;;21.81;42.71;100866.25;5038641;28;45424;-61
2022/05/11 05:56:17;;;;;;;;;14.00;14.00;;;;;21.84;42.50;100861.66;5038167;28;45470;-61
2022/05/11 05:58:44;;;;;;;;;13.50;13.25;;;;;21.87;42.53;100866.75;5038206;28;45310;-61
2022/05/11 06:01:10;;;;;;;;;16.00;14.50;;;;;21.87;42.19;100863.25;5036979;28;45194;-61
2022/05/11 06:03:36;;;;;;;;;14.75;13.25;;;;;21.89;42.18;100864.00;5038548;28;45487;-61
2022/05/11 06:06:01;;;;;;;;;14.25;11.00;;;;;21.90;42.39;100866.53;5037985;28;45296;-61
2022/05/11 06:08:29;;;;;;;;;13.25;11.25;;;;;21.93;42.04;100873.44;5038053;28;45375;-61
2022/05/11 06:10:55;;;;;;;;;13.75;10.25;;;;;21.93;41.90;100873.44;5038496;28;45394;-63
2022/05/11 06:13:22;;;;;;;;;12.50;12.50;;;;;21.97;42.27;100876.72;5037998;28;45256;-58
2022/05/11 06:15:52;;;;;;;;;14.25;12.25;;;;;21.97;42.14;100871.47;5037868;28;47108;-58
2022/05/11 06:18:19;;;;;;;;;15.75;14.00;;;;;22.00;42.47;100877.38;5037991;28;46031;-58
2022/05/11 06:20:44;;;;;;;;;15.25;13.50;;;;;22.01;42.01;100867.66;5038026;28;45299;-58
2022/05/11 06:23:10;;;;;;;;;12.00;11.25;;;;;22.02;41.72;100864.94;5053764;28;45519;-58
2022/05/11 06:25:38;;;;;;;;;12.75;12.50;;;;;22.03;41.86;100868.44;5037745;28;46264;-58
2022/05/11 06:28:07;;;;;;;;;12.25;11.75;;;;;22.04;41.63;100864.84;5037690;28;45305;-58
2022/05/11 06:30:34;;;;;;;;;10.00;10.00;;;;;22.03;41.83;100860.50;5036535;28;45364;-58
2022/05/11 06:33:00;;;;;;;;;11.75;9.75;;;;;22.07;41.51;100862.88;5038186;28;45538;-57
2022/05/11 06:35:27;;;;;;;;;9.50;9.50;;;;;22.09;41.53;100857.50;5037930;28;46172;-59
2022/05/11 06:37:54;;;;;;;;;10.75;9.00;;;;;22.10;41.34;100856.56;5037629;28;45680;-58
2022/05/11 06:40:20;;;;;;;;;9.00;9.00;;;;;22.13;41.27;100861.63;5037776;28;45260;-58
2022/05/11 06:42:48;;;;;;;;;9.50;9.00;;;;;22.15;41.51;100866.84;5037950;28;45426;-58
2022/05/11 06:45:14;;;;;;;;;12.25;9.50;;;;;22.16;41.18;100864.09;5037403;28;46108;-58
2022/05/11 06:47:40;;;;;;;;;12.25;10.25;;;;;22.14;41.18;100862.50;5037561;28;45294;-58
2022/05/11 06:50:05;;;;;;;;;8.75;8.75;;;;;22.15;41.25;100861.56;5037584;28;45318;-58
2022/05/11 06:52:31;;;;;;;;;7.75;7.75;;;;;22.19;41.29;100860.41;5037906;28;45496;-58
2022/05/11 07:00:29;;;;;;;;;8.00;8.00;;;;;22.22;40.96;100858.41;5037039;28;45403;-58
2022/05/11 07:02:54;;;;;;;;;11.00;9.25;;;;;22.24;40.75;100872.38;5037550;28;45554;-58
2022/05/11 07:05:20;;;;;;;;;10.50;10.50;;;;;22.27;40.86;100862.56;5037170;28;46204;-58
2022/05/11 07:07:45;;;;;;;;;9.50;8.25;;;;;22.29;40.58;100865.97;5037152;28;45334;-58
2022/05/11 07:10:11;;;;;;;;;8.50;8.50;;;;;22.30;40.76;100867.69;5037236;28;45402;-58
2022/05/11 07:12:38;;;;;;;;;11.00;9.00;;;;;22.28;40.58;100859.00;5037391;28;45571;-58
2022/05/11 07:15:09;;;;;;;;;12.00;11.50;;;;;22.34;40.68;100863.88;5036865;28;47272;-57
2022/05/11 07:17:38;;;;;;;;;8.00;8.00;;;;;22.35;40.71;100860.28;5037057;28;45947;-58
2022/05/11 07:20:08;;;;;;;;;10.75;9.75;;;;;22.38;40.61;100866.22;5036593;28;45352;-58
2022/05/11 07:22:33;;;;;;;;;12.00;10.00;;;;;22.39;40.53;100862.66;5037228;28;45240;-58
2022/05/11 07:24:59;;;;;;;;;9.50;8.00;;;;;22.42;40.50;100864.31;5037069;28;46306;-58
2022/05/11 07:27:25;;;;;;;;;11.25;8.50;;;;;22.42;40.45;100861.66;5036909;28;45305;-58
2022/05/11 07:29:52;;;;;;;;;9.75;9.25;;;;;22.46;40.37;100871.06;5036628;28;45419;-57
2022/05/11 07:32:17;;;;;;;;;9.25;8.50;;;;;22.48;40.24;100871.81;5037025;28;45470;-60
2022/05/11 07:34:42;;;;;;;;;9.25;8.00;;;;;22.50;40.18;100874.34;5036716;28;46144;-59
2022/05/11 07:37:08;;;;;;;;;7.50;7.50;;;;;22.50;40.17;100867.31;5036735;28;45371;-59
2022/05/11 07:39:33;;;;;;;;;8.00;6.50;;;;;22.51;40.34;100863.72;5037246;28;45346;-58
2022/05/11 07:41:59;;;;;;;;;10.75;9.75;;;;;22.54;40.32;100860.03;5037258;28;45386;-57
2022/05/11 07:44:25;;;;;;;;;10.00;8.50;;;;;22.58;40.60;100866.81;5036703;28;45348;-57
2022/05/11 07:46:51;;;;;;;;;9.00;8.50;;;;;22.61;40.42;100866.59;5036593;28;45268;-58
2022/05/11 07:49:18;;;;;;;;;11.00;8.25;;;;;22.63;40.22;100870.00;5035465;28;45235;-58
2022/05/11 07:51:45;;;;;;;;;8.00;7.00;;;;;22.64;40.34;100865.56;5036628;28;45590;-57
2022/05/11 07:54:11;;;;;;;;;5.75;5.75;;;;;22.65;40.27;100877.84;5036164;28;46220;-57
2022/05/11 08:02:06;;;;;;;;;8.50;7.50;;;;;22.65;40.14;100868.09;5036850;28;45422;-58
2022/05/11 08:04:31;;;;;;;;;6.00;5.25;;;;;22.68;40.34;100872.34;5036609;28;46425;-58
2022/05/11 08:06:58;;;;;;;;;7.00;7.00;;;;;22.66;40.22;100871.59;5035060;28;45760;-60
2022/05/11 08:09:23;;;;;;;;;6.25;6.25;;;;;22.69;40.24;100874.91;5036477;28;45332;-58
2022/05/11 08:11:50;;;;;;;;;8.00;8.00;;;;;22.68;40.02;100872.34;5036438;28;45510;-58
2022/05/11 08:14:15;;;;;;;;;6.75;6.00;;;;;22.68;39.99;100867.06;5036079;28;46950;-58
2022/05/11 08:16:41;;;;;;;;;7.00;7.00;;;;;22.70;39.99;100870.47;5034925;28;45348;-58
2022/05/11 08:19:07;;;;;;;;;6.75;6.25;;;;;22.71;39.85;100866.88;5036238;28;45208;-58
2022/05/11 08:21:33;;;;;;;;;9.00;8.25;;;;;22.70;40.12;100867.81;5035607;28;45269;-58
2022/05/11 08:23:59;;;;;;;;;7.75;6.00;;;;;22.72;39.61;100860.66;5051606;28;46122;-58
2022/05/11 08:26:24;;;;;;;;;6.50;6.00;;;;;22.73;39.99;100866.75;5036138;28;45459;-58
2022/05/11 08:28:50;;;;;;;;;6.00;6.00;;;;;22.73;39.90;100864.97;5036173;28;45220;-58
2022/05/11 08:33:59;;;;;;;;;6.00;5.25;;;;;22.72;39.84;100870.34;5039507;28;45802;-58
2022/05/11 08:36:26;;;;;;;;;7.50;7.00;;;;;22.73;39.84;100878.19;5039682;28;45292;-58
2022/05/11 08:38:55;;;;;;;;;6.50;6.50;;;;;22.75;39.76;100878.94;5039564;28;45465;-58
2022/05/11 08:41:33;;;;;;;;;7.25;6.25;;;;;22.76;39.50;100879.78;5039777;28;45430;-58
2022/05/11 08:44:01;;;;;;;;;6.00;6.00;;;;;22.76;39.49;100874.50;5039363;28;46441;-58
2022/05/11 08:46:26;;;;;;;;;7.50;6.00;;;;;22.76;39.77;100863.94;5039460;28;45341;-58
2022/05/11 08:48:59;;;;;;;;;8.67;6.00;;;;;22.76;39.62;100869.22;5039614;28;45371;-58
2022/05/11 08:51:31;;;;;;;;;3.00;3.00;;;;;22.77;39.53;100874.38;5039559;28;45574;-58
2022/05/11 08:54:11;;;;;;;;;6.00;6.00;;;;;22.76;39.69;100870.06;5039423;28;45321;-58
2022/05/11 08:56:38;;;;;;;;;7.00;7.00;;;;;22.77;39.75;100866.47;5039659;28;45751;-59
2022/05/11 08:59:11;;;;;;;;;6.25;6.25;;;;;22.79;39.70;100869.03;5038501;28;45397;-61
2022/05/11 09:01:50;;;;;;;;;7.75;6.50;;;;;22.78;39.32;100868.16;5039782;28;45463;-58
2022/05/11 09:04:22;;;;;;;;;5.00;5.00;;;;;22.78;39.42;100867.31;5039002;28;46427;-58
2022/05/11 09:06:48;;;;;;;;;6.00;6.00;;;;;22.80;39.50;100871.56;5037710;28;45961;-58
2022/05/11 09:09:15;;;;;;;;;6.00;6.00;;;;;22.81;39.48;100872.44;5039142;28;45272;-58
2022/05/11 09:11:53;;;;;;;;;7.00;5.25;;;;;22.81;39.28;100865.31;5039256;28;45465;-58
2022/05/11 09:14:31;;;;;;;;;7.25;7.25;;;;;22.82;39.00;100867.03;5054303;28;46182;-58
2022/05/11 09:16:57;;;;;;;;;7.00;7.00;;;;;22.82;39.38;100863.56;5038856;28;45876;-57
2022/05/11 09:19:27;;;;;;;;;6.50;6.50;;;;;22.82;39.17;100864.38;5038825;28;45335;-56
2022/05/11 09:21:52;;;;;;;;;4.75;4.75;;;;;22.83;38.90;100866.09;5037488;28;45419;-56
2022/05/11 09:24:17;;;;;;;;;5.33;5.00;;;;;22.84;39.11;100867.78;5037629;28;46301;-56
2022/05/11 09:26:46;;;;;;;;;7.33;6.33;;;;;22.84;39.14;100874.84;5038587;28;45312;-56
2022/05/11 09:29:31;;;;;;;;;6.00;5.00;;;;;22.85;38.71;100873.91;5038937;28;45402;-56
2022/05/11 09:32:19;;;;;;;;;5.50;5.50;;;;;22.85;38.89;100868.63;5037951;28;45564;-56
2022/05/11 09:34:44;;;;;;;;;6.50;6.50;;;;;22.88;38.80;100867.56;5038515;28;47118;-55
2022/05/11 09:37:35;;;;;;;;;6.50;5.00;;;;;22.88;38.61;100857.84;5038170;28;45443;-56
2022/05/11 09:40:20;;;;;;;;;5.25;5.00;;;;;22.88;38.41;100867.56;5038686;28;45387;-56
2022/05/11 09:42:53;;;;;;;;;4.50;4.50;;;;;22.90;38.45;100865.66;5038459;28;45371;-56
2022/05/11 09:45:47;;;;;;;;;3.25;3.25;;;;;22.89;38.15;100866.63;5038482;28;45308;-56
2022/05/11 09:48:31;;;;;;;;;10.50;4.75;;;;;22.90;37.98;100868.31;5038389;28;45785;-56
2022/05/11 09:51:18;;;;;;;;;8.50;6.75;;;;;22.90;38.13;100860.38;5038598;28;45351;-58
2022/05/11 09:53:59;;;;;;;;;5.00;5.00;;;;;22.91;38.01;100856.78;5038429;28;45389;-56
2022/05/11 09:56:31;;;;;;;;;5.00;3.50;;;;;22.91;37.96;100856.78;5038240;28;45309;-56
2022/05/11 09:59:21;;;;;;;;;4.50;4.50;;;;;22.90;38.08;100849.81;5038329;28;45305;-56
2022/05/11 10:01:51;;;;;;;;;5.50;5.00;;;;;22.91;37.90;100851.50;5038262;28;45279;-56
2022/05/11 10:04:20;;;;;;;;;5.00;5.00;;;;;22.92;38.02;100853.22;5038632;28;45423;-57
2022/05/11 10:06:50;;;;;;;;;5.00;5.00;;;;;22.92;37.58;100861.13;5038100;28;46212;-57
2022/05/11 10:09:25;;;;;;;;;6.00;6.00;;;;;22.93;38.08;100857.56;5038182;28;45393;-56
2022/05/11 10:11:51;;;;;;;;;4.25;4.25;;;;;22.93;37.76;100849.63;5037642;28;45403;-56
2022/05/11 10:23:16;;;;;;;;;3.75;3.00;;;;;22.95;37.47;100847.72;5038038;28;45268;-57
2022/05/11 10:25:45;;;;;;;;;4.75;3.50;;;;;22.95;37.47;100847.72;5038380;28;45493;-57
2022/05/11 10:28:14;;;;;;;;;3.00;3.00;;;;;22.95;37.47;100847.72;5038090;28;47046;-57
2022/05/11 10:30:58;;;;;;;;;6.00;4.00;;;;;22.96;37.21;100855.53;5038063;28;45761;-57
2022/05/11 10:33:49;;;;;;;;;4.00;4.00;;;;;22.98;37.40;100853.66;5037866;28;45329;-57
2022/05/11 10:36:21;;;;;;;;;6.00;3.75;;;;;22.98;37.38;100858.13;5021890;28;45393;-57
2022/05/11 10:39:45;;;;;;;;;4.00;3.50;;;;;22.99;37.29;100860.66;5037675;28;45704;-57
2022/05/11 10:42:26;;;;;;;;;4.00;4.00;;;;;23.00;37.67;100849.13;4990773;28;45751;-57
2022/05/11 10:45:20;;;;;;;;;5.75;5.00;;;;;23.01;37.58;100863.19;5037764;28;45265;-57
2022/05/11 10:48:15;;;;;;;;;6.50;5.00;;;;;23.02;37.63;100856.94;5037846;28;45427;-57
2022/05/11 10:50:59;;;;;;;;;4.50;4.50;;;;;23.03;37.73;100850.72;5037800;28;46408;-57
2022/05/11 10:53:33;;;;;;;;;4.00;4.00;;;;;23.04;37.63;100851.56;5036432;28;45193;-57
2022/05/11 10:56:26;;;;;;;;;8.50;6.00;;;;;23.05;37.50;100847.97;5037585;28;45166;-58
2022/05/11 10:59:00;;;;;;;;;4.00;3.50;;;;;23.05;38.00;100832.09;5037709;28;45486;-56
2022/05/11 11:01:37;;;;;;;;;4.00;3.00;;;;;23.06;38.09;100839.94;5037309;28;45280;-57
2022/05/11 11:04:17;;;;;;;;;3.50;3.25;;;;;23.07;38.03;100817.84;5037445;28;45451;-57
2022/05/11 11:07:13;;;;;;;;;6.00;4.75;;;;;23.08;38.04;100837.19;5037660;28;45417;-57
2022/05/11 11:09:56;;;;;;;;;5.75;5.75;;;;;23.10;38.38;100837.94;5037813;28;45352;-58
2022/05/11 11:12:54;;;;;;;;;6.75;5.00;;;;;23.10;38.07;100824.72;5037023;28;46431;-57
2022/05/11 11:15:23;;;;;;;;;4.00;4.00;;;;;23.11;38.04;100827.25;5036501;28;45892;-57
2022/05/11 11:17:51;;;;;;;;;3.75;3.75;;;;;23.11;38.33;100821.97;5037230;28;45215;-57
2022/05/11 11:20:19;;;;;;;;;3.00;3.00;;;;;23.11;38.44;100816.69;5037203;28;45424;-58
2022/05/11 11:23:04;;;;;;;;;4.50;3.50;;;;;23.12;38.41;100823.66;5036862;28;46098;-58
2022/05/11 11:25:52;;;;;;;;;5.00;5.00;;;;;23.12;38.19;100813.09;5036933;28;45906;-57
2022/05/11 11:28:21;;;;;;;;;5.00;4.50;;;;;23.13;38.53;100814.78;5035564;28;45305;-57
2022/05/11 11:30:58;;;;;;;;;3.75;3.00;;;;;23.15;38.57;100812.06;5037147;28;45470;-57
2022/05/11 11:33:28;;;;;;;;;6.00;5.75;;;;;23.14;37.86;100805.91;5036579;28;45370;-58
2022/05/11 11:35:58;;;;;;;;;6.50;4.25;;;;;23.15;38.44;100802.31;5036538;28;45799;-57
2022/05/11 11:38:24;;;;;;;;;4.00;4.00;;;;;23.16;38.53;100819.00;5036860;28;45319;-57
2022/05/11 11:41:29;;;;;;;;;5.25;4.00;;;;;23.16;38.63;100814.59;5037013;28;45382;-57
2022/05/11 11:43:57;;;;;;;;;3.00;3.00;;;;;23.16;38.46;100809.31;5036840;28;45913;-57
2022/05/11 11:46:36;;;;;;;;;4.00;4.00;;;;;23.15;38.04;100799.66;5036636;28;45171;-57
2022/05/11 11:49:16;;;;;;;;;4.00;4.00;;;;;23.16;38.33;100804.00;5036712;28;45464;-57
2022/05/11 11:51:56;;;;;;;;;3.50;3.50;;;;;23.16;38.03;100805.78;5037006;28;45535;-57
2022/05/11 11:54:38;;;;;;;;;4.00;4.00;;;;;23.16;38.34;100796.06;5036337;28;47192;-57
2022/05/11 11:57:06;;;;;;;;;3.00;3.00;;;;;23.14;38.11;100795.31;5036606;28;45311;-57
2022/05/11 11:59:40;;;;;;;;;5.00;4.00;;;;;23.17;38.14;100791.63;5036684;28;45909;-57